createdAt,value
2023-02-21T00:00:32.357Z,96608.59
2023-02-21T00:03:17.614Z,96568.25
2023-02-21T00:06:02.946Z,96590.47
2023-02-21T00:08:48.421Z,96619.91
2023-02-21T00:11:33.719Z,96620.78
2023-02-21T00:14:18.812Z,96586.50
2023-02-21T00:17:05.592Z,96603.16
2023-02-21T00:19:50.858Z,96608.59
2023-02-21T00:22:36.156Z,96580.03
2023-02-21T00:25:21.476Z,96564.13
2023-02-21T00:28:06.647Z,96564.31
2023-02-21T00:30:51.942Z,96599.06
2023-02-21T00:33:37.115Z,96578.84
2023-02-21T00:36:22.470Z,96575.63
2023-02-21T00:39:07.892Z,96591.78
2023-02-21T00:41:52.996Z,96588.00
2023-02-21T00:44:38.304Z,96584.91
2023-02-21T00:47:23.600Z,96564.16
2023-02-21T00:50:08.868Z,96597.16
2023-02-21T00:52:54.028Z,96596.16
2023-02-21T00:55:39.368Z,96613.00
2023-02-21T00:58:24.535Z,96581.50
2023-02-21T01:01:09.884Z,96560.31
2023-02-21T01:03:55.074Z,96588.81
2023-02-21T01:06:40.226Z,96562.78
2023-02-21T01:09:25.457Z,96587.75
2023-02-21T01:12:11.183Z,96555.97
2023-02-21T01:14:56.337Z,96526.41
2023-02-21T01:17:44.262Z,96559.09
2023-02-21T01:20:29.497Z,96552.75
2023-02-21T01:23:16.129Z,96566.19
2023-02-21T01:26:01.784Z,96568.72
2023-02-21T01:28:47.062Z,96572.00
2023-02-21T01:31:37.364Z,96546.03
2023-02-21T01:34:23.238Z,96566.66
2023-02-21T01:37:08.332Z,96552.25
2023-02-21T01:39:53.595Z,96552.44
2023-02-21T01:42:39.050Z,96547.88
2023-02-21T01:45:39.711Z,96576.13
2023-02-21T01:48:27.544Z,96550.63
2023-02-21T01:51:14.030Z,96545.75
2023-02-21T01:53:59.548Z,96530.50
2023-02-21T01:56:47.079Z,96538.84
2023-02-21T01:59:33.242Z,96562.09
2023-02-21T02:02:27.967Z,96527.47
2023-02-21T02:05:14.571Z,96547.41
2023-02-21T02:08:00.423Z,96518.69
2023-02-21T02:10:46.012Z,96534.75
2023-02-21T02:13:33.152Z,96549.19
2023-02-21T02:16:06.322Z,96545.50
2023-02-21T02:18:39.335Z,96549.44
2023-02-21T02:21:46.001Z,96549.25
2023-02-21T02:24:33.945Z,96539.81
2023-02-21T02:27:21.219Z,96525.31
2023-02-21T02:30:36.541Z,96538.06
2023-02-21T02:33:21.872Z,96537.19
2023-02-21T02:36:30.339Z,96538.56
2023-02-21T02:39:11.423Z,96537.19
2023-02-21T02:42:11.004Z,96530.28
2023-02-21T02:44:45.138Z,96537.00
2023-02-21T02:47:24.869Z,96512.91
2023-02-21T02:49:52.252Z,96486.41
2023-02-21T02:52:19.711Z,96490.59
2023-02-21T02:54:58.386Z,96531.63
2023-02-21T02:57:26.301Z,96524.53
2023-02-21T02:59:53.046Z,96513.97
2023-02-21T03:02:52.236Z,96514.50
2023-02-21T03:05:48.871Z,96513.66
2023-02-21T03:08:33.459Z,96525.91
2023-02-21T03:11:10.122Z,96533.13
2023-02-21T03:14:01.196Z,96515.91
2023-02-21T03:16:44.261Z,96536.22
2023-02-21T03:19:15.187Z,96501.50
2023-02-21T03:21:46.620Z,96537.19
2023-02-21T03:24:15.886Z,96542.44
2023-02-21T03:26:46.386Z,96517.63
2023-02-21T03:29:40.311Z,96518.69
2023-02-21T03:32:12.724Z,96539.16
2023-02-21T03:34:41.873Z,96543.63
2023-02-21T03:37:20.148Z,96544.69
2023-02-21T03:39:47.016Z,96537.94
2023-02-21T03:42:13.614Z,96554.09
2023-02-21T03:44:40.786Z,96517.13
2023-02-21T03:47:07.828Z,96545.16
2023-02-21T03:49:34.651Z,96513.81
2023-02-21T03:52:01.322Z,96547.69
2023-02-21T03:54:27.943Z,96531.56
2023-02-21T03:56:57.052Z,96546.34
2023-02-21T03:59:25.352Z,96502.66
2023-02-21T04:01:52.801Z,96519.50
2023-02-21T04:04:20.555Z,96504.75
2023-02-21T04:06:53.164Z,96523.13
2023-02-21T04:09:19.929Z,96525.16
2023-02-21T04:11:47.093Z,96521.88
2023-02-21T04:14:14.788Z,96523.44
2023-02-21T04:16:42.582Z,96495.13
2023-02-21T04:19:09.754Z,96503.69
2023-02-21T04:21:36.862Z,96504.19
2023-02-21T04:24:04.477Z,96488.91
2023-02-21T04:26:32.272Z,96490.16
2023-02-21T04:28:58.994Z,96487.84
2023-02-21T04:31:25.954Z,96500.19
2023-02-21T04:34:02.452Z,96477.34
2023-02-21T04:36:33.259Z,96486.88
2023-02-21T04:38:59.930Z,96497.09
2023-02-21T04:41:26.514Z,96473.19
2023-02-21T04:43:53.935Z,96487.19
2023-02-21T04:46:20.917Z,96473.06
2023-02-21T04:48:50.191Z,96482.75
2023-02-21T04:51:20.002Z,96499.69
2023-02-21T04:53:48.048Z,96461.38
2023-02-21T04:56:15.260Z,96500.09
2023-02-21T04:58:45.599Z,96503.50
2023-02-21T05:01:13.685Z,96462.84
2023-02-21T05:03:40.648Z,96463.53
2023-02-21T05:06:07.703Z,96468.00
2023-02-21T05:08:36.335Z,96464.19
2023-02-21T05:11:03.764Z,96491.41
2023-02-21T05:13:30.379Z,96456.28
2023-02-21T05:15:57.017Z,96498.78
2023-02-21T05:18:28.309Z,96503.19
2023-02-21T05:20:55.884Z,96493.97
2023-02-21T05:23:35.734Z,96495.81
2023-02-21T05:26:08.935Z,96477.13
2023-02-21T05:28:36.696Z,96492.88
2023-02-21T05:31:03.545Z,96412.69
2023-02-21T05:33:30.840Z,96442.63
2023-02-21T05:35:57.510Z,96485.69
2023-02-21T05:38:25.172Z,96469.59
2023-02-21T05:40:52.058Z,96476.56
2023-02-21T05:43:19.517Z,96416.41
2023-02-21T05:45:46.274Z,96449.66
2023-02-21T05:48:12.925Z,96472.22
2023-02-21T05:50:39.765Z,96480.56
2023-02-21T05:53:06.805Z,96478.22
2023-02-21T05:55:33.531Z,96462.28
2023-02-21T05:58:00.143Z,96471.50
2023-02-21T06:00:29.246Z,96475.47
2023-02-21T06:02:56.906Z,96476.34
2023-02-21T06:05:24.058Z,96470.78
2023-02-21T06:07:51.206Z,96465.63
2023-02-21T06:10:18.550Z,96442.94
2023-02-21T06:12:45.252Z,96422.31
2023-02-21T06:15:13.106Z,96424.16
2023-02-21T06:17:41.140Z,96475.28
2023-02-21T06:20:10.337Z,96475.06
2023-02-21T06:22:36.911Z,96467.44
2023-02-21T06:25:04.012Z,96452.47
2023-02-21T06:27:30.579Z,96461.28
2023-02-21T06:29:57.286Z,96464.84
2023-02-21T06:32:23.884Z,96474.19
2023-02-21T06:34:50.534Z,96451.47
2023-02-21T06:37:19.129Z,96467.91
2023-02-21T06:39:46.173Z,96461.44
2023-02-21T06:42:17.135Z,96504.03
2023-02-21T06:44:48.532Z,96445.94
2023-02-21T06:47:16.240Z,96507.25
2023-02-21T06:49:43.039Z,96463.84
2023-02-21T06:52:10.792Z,96513.25
2023-02-21T06:54:38.046Z,96479.00
2023-02-21T06:57:05.714Z,96474.13
2023-02-21T06:59:32.779Z,96505.19
2023-02-21T07:01:59.978Z,96518.50
2023-02-21T07:04:26.687Z,96522.47
2023-02-21T07:06:53.360Z,96492.34
2023-02-21T07:09:20.000Z,96530.59
2023-02-21T07:11:47.102Z,96502.81
2023-02-21T07:14:14.551Z,96508.63
2023-02-21T07:16:41.180Z,96511.25
2023-02-21T07:19:07.945Z,96539.34
2023-02-21T07:21:34.578Z,96456.41
2023-02-21T07:24:01.155Z,96541.63
2023-02-21T07:26:27.761Z,96527.00
2023-02-21T07:28:54.458Z,96505.59
2023-02-21T07:31:21.546Z,96533.06
2023-02-21T07:33:48.374Z,96441.22
2023-02-21T07:36:15.061Z,96514.50
2023-02-21T07:38:41.683Z,96532.00
2023-02-21T07:41:08.281Z,96526.28
2023-02-21T07:43:34.878Z,96554.16
2023-02-21T07:46:01.543Z,96514.75
2023-02-21T07:48:28.196Z,96555.63
2023-02-21T07:50:54.894Z,96551.41
2023-02-21T07:53:21.528Z,96527.38
2023-02-21T07:55:48.112Z,96508.13
2023-02-21T07:58:14.759Z,96537.78
2023-02-21T08:00:41.398Z,96554.56
2023-02-21T08:03:09.759Z,96546.09
2023-02-21T08:05:36.335Z,96549.59
2023-02-21T08:08:03.015Z,96521.06
2023-02-21T08:10:29.616Z,96525.41
2023-02-21T08:12:56.252Z,96562.50
2023-02-21T08:15:23.158Z,96540.31
2023-02-21T08:17:50.333Z,96581.03
2023-02-21T08:20:17.458Z,96571.03
2023-02-21T08:22:44.399Z,96562.56
2023-02-21T08:25:12.448Z,96593.50
2023-02-21T08:27:42.770Z,96592.84
2023-02-21T08:30:11.955Z,96565.03
2023-02-21T08:32:38.618Z,96578.69
2023-02-21T08:35:06.318Z,96546.16
2023-02-21T08:37:36.241Z,96579.38
2023-02-21T08:40:04.379Z,96595.41
2023-02-21T08:42:31.017Z,96561.88
2023-02-21T08:44:57.754Z,96589.03
2023-02-21T08:47:24.731Z,96604.22
2023-02-21T08:49:51.662Z,96598.38
2023-02-21T08:52:21.134Z,96574.75
2023-02-21T08:54:47.836Z,96567.59
2023-02-21T08:57:14.706Z,96591.81
2023-02-21T08:59:42.808Z,96615.44
2023-02-21T09:02:16.916Z,96586.69
2023-02-21T09:04:44.361Z,96562.47
2023-02-21T09:07:19.724Z,96592.88
2023-02-21T09:09:46.669Z,96618.84
2023-02-21T09:12:13.851Z,96566.34
2023-02-21T09:14:42.483Z,96588.66
2023-02-21T09:17:11.266Z,96569.44
2023-02-21T09:19:38.057Z,96618.56
2023-02-21T09:22:07.552Z,96612.06
2023-02-21T09:24:34.517Z,96618.16
2023-02-21T09:27:03.958Z,96594.94
2023-02-21T09:29:45.008Z,96612.56
2023-02-21T09:32:13.735Z,96622.69
2023-02-21T09:34:40.478Z,96616.47
2023-02-21T09:37:07.549Z,96620.75
2023-02-21T09:39:38.153Z,96621.19
2023-02-21T09:42:05.086Z,96613.06
2023-02-21T09:44:32.066Z,96586.69
2023-02-21T09:47:02.828Z,96616.16
2023-02-21T09:49:40.289Z,96617.41
2023-02-21T09:52:18.929Z,96584.81
2023-02-21T09:54:51.192Z,96604.03
2023-02-21T09:57:18.543Z,96575.28
2023-02-21T09:59:46.312Z,96606.22
2023-02-21T10:02:19.148Z,96596.41
2023-02-21T10:05:10.137Z,96587.94
2023-02-21T10:07:44.416Z,96562.00
2023-02-21T10:10:17.185Z,96562.22
2023-02-21T10:12:51.798Z,96591.63
2023-02-21T10:15:37.097Z,96582.16
2023-02-21T10:18:08.930Z,96547.38
2023-02-21T10:20:35.448Z,96582.75
2023-02-21T10:23:14.488Z,96568.66
2023-02-21T10:25:44.162Z,96599.97
2023-02-21T10:28:23.852Z,96603.41
2023-02-21T10:30:55.160Z,96601.25
2023-02-21T10:33:22.134Z,96594.53
2023-02-21T10:35:48.821Z,96587.41
2023-02-21T10:38:24.601Z,96608.69
2023-02-21T10:40:53.221Z,96571.88
2023-02-21T10:43:26.626Z,96573.94
2023-02-21T10:46:11.415Z,96594.88
2023-02-21T10:48:39.407Z,96584.00
2023-02-21T10:51:18.689Z,96606.03
2023-02-21T10:53:47.874Z,96604.03
2023-02-21T10:56:20.589Z,96598.88
2023-02-21T10:58:53.490Z,96596.75
2023-02-21T11:01:22.901Z,96596.56
2023-02-21T11:03:52.208Z,96555.47
2023-02-21T11:06:23.905Z,96581.03
2023-02-21T11:08:50.594Z,96544.28
2023-02-21T11:11:40.660Z,96584.16
2023-02-21T11:14:28.144Z,96580.72
2023-02-21T11:17:07.373Z,96583.81
2023-02-21T11:19:58.138Z,96568.31
2023-02-21T11:22:34.785Z,96590.66
2023-02-21T11:25:20.448Z,96583.66
2023-02-21T11:28:01.220Z,96575.91
2023-02-21T11:30:29.916Z,96573.72
2023-02-21T11:32:58.955Z,96570.25
2023-02-21T11:35:43.177Z,96490.66
2023-02-21T11:38:32.720Z,96566.31
2023-02-21T11:41:00.672Z,96551.13
2023-02-21T11:43:29.463Z,96557.09
2023-02-21T11:46:00.166Z,96520.66
2023-02-21T11:48:32.878Z,96521.44
2023-02-21T11:51:06.107Z,96550.91
2023-02-21T11:53:39.150Z,96513.81
2023-02-21T11:56:21.052Z,96547.78
2023-02-21T11:59:01.957Z,96527.25
2023-02-21T12:01:57.148Z,96501.44
2023-02-21T12:04:42.041Z,96536.78
2023-02-21T12:07:23.918Z,96535.00
2023-02-21T12:10:01.445Z,96533.47
2023-02-21T12:12:48.371Z,96475.41
2023-02-21T12:15:24.815Z,96517.63
2023-02-21T12:18:25.465Z,96516.97
2023-02-21T12:21:10.234Z,96514.28
2023-02-21T12:24:07.774Z,96514.03
2023-02-21T12:26:58.390Z,96518.81
2023-02-21T12:29:46.886Z,96511.47
2023-02-21T12:32:23.261Z,96502.84
2023-02-21T12:34:58.923Z,96500.84
2023-02-21T12:37:40.759Z,96464.38
2023-02-21T12:40:40.072Z,96447.09
2023-02-21T12:43:43.876Z,96475.38
2023-02-21T12:46:27.940Z,96473.28
2023-02-21T12:49:16.493Z,96458.47
2023-02-21T12:52:20.755Z,96467.72
2023-02-21T12:55:05.723Z,96462.09
2023-02-21T12:57:43.356Z,96466.25
2023-02-21T13:00:17.689Z,96467.66
2023-02-21T13:03:19.618Z,96307.41
2023-02-21T13:05:52.176Z,96437.31
2023-02-21T13:08:34.534Z,96449.13
2023-02-21T13:11:19.394Z,96459.63
2023-02-21T13:13:47.836Z,96454.53
2023-02-21T13:16:18.468Z,96419.22
2023-02-21T13:19:02.144Z,96426.31
2023-02-21T13:21:34.714Z,96444.19
2023-02-21T13:24:47.987Z,96442.22
2023-02-21T13:27:43.132Z,96420.13
2023-02-21T13:30:15.166Z,96355.03
2023-02-21T13:32:52.238Z,96416.22
2023-02-21T13:35:25.858Z,96374.38
2023-02-21T13:37:53.645Z,96424.50
2023-02-21T13:40:31.814Z,96423.94
2023-02-21T13:43:12.420Z,96422.84
2023-02-21T13:45:39.465Z,96368.72
2023-02-21T13:48:06.109Z,96423.03
2023-02-21T13:50:39.226Z,96418.81
2023-02-21T13:53:09.065Z,96409.78
2023-02-21T13:55:36.921Z,96417.47
2023-02-21T13:58:05.220Z,96421.22
2023-02-21T14:00:31.870Z,96417.59
2023-02-21T14:03:28.523Z,96418.56
2023-02-21T14:05:55.044Z,96409.59
2023-02-21T14:08:24.636Z,96416.19
2023-02-21T14:10:54.838Z,96409.91
2023-02-21T14:13:40.916Z,96378.88
2023-02-21T14:16:07.520Z,96405.34
2023-02-21T14:18:40.382Z,96405.13
2023-02-21T14:21:10.951Z,96411.25
2023-02-21T14:23:46.754Z,96317.38
2023-02-21T14:26:41.204Z,96411.84
2023-02-21T14:29:07.801Z,96413.38
2023-02-21T14:31:49.468Z,96385.91
2023-02-21T14:34:40.488Z,96405.00
2023-02-21T14:37:27.320Z,96389.88
2023-02-21T14:40:15.054Z,96410.94
2023-02-21T14:43:02.151Z,96406.13
2023-02-21T14:46:00.784Z,96397.69
2023-02-21T14:48:51.884Z,96385.81
2023-02-21T14:51:50.890Z,96385.38
2023-02-21T14:54:56.689Z,96374.84
2023-02-21T14:57:50.738Z,96380.19
2023-02-21T15:01:00.303Z,96381.25
2023-02-21T15:03:36.432Z,96389.19
2023-02-21T15:06:18.330Z,96390.22
2023-02-21T15:08:48.538Z,96289.16
2023-02-21T15:11:21.140Z,96311.63
2023-02-21T15:13:48.074Z,96349.16
2023-02-21T15:16:16.331Z,96354.41
2023-02-21T15:19:01.598Z,96383.81
2023-02-21T15:21:28.359Z,96374.97
2023-02-21T15:24:13.554Z,96376.75
2023-02-21T15:26:40.396Z,96328.94
2023-02-21T15:29:11.555Z,96368.88
2023-02-21T15:31:49.613Z,96350.47
2023-02-21T15:34:21.692Z,96349.84
2023-02-21T15:36:55.458Z,96368.56
2023-02-21T15:39:30.696Z,96334.00
2023-02-21T15:41:59.987Z,96347.69
2023-02-21T15:44:35.911Z,96285.38
2023-02-21T15:47:15.982Z,96370.44
2023-02-21T15:49:51.874Z,96209.41
2023-02-21T15:52:38.030Z,96362.78
2023-02-21T15:55:26.449Z,96360.16
2023-02-21T15:58:02.096Z,96357.19
2023-02-21T16:00:37.577Z,96362.34
2023-02-21T16:03:55.677Z,96320.19
2023-02-21T16:06:29.697Z,96359.41
2023-02-21T16:08:59.283Z,96361.50
2023-02-21T16:11:38.582Z,96357.72
2023-02-21T16:14:05.423Z,96358.06
2023-02-21T16:16:35.856Z,96339.09
2023-02-21T16:19:02.580Z,96327.19
2023-02-21T16:21:29.825Z,96323.81
2023-02-21T16:23:56.668Z,96348.16
2023-02-21T16:26:28.241Z,96354.22
2023-02-21T16:28:58.457Z,96297.25
2023-02-21T16:31:26.779Z,96332.97
2023-02-21T16:33:53.627Z,96334.75
2023-02-21T16:36:43.661Z,96340.84
2023-02-21T16:39:11.888Z,96305.56
2023-02-21T16:41:38.528Z,96316.78
2023-02-21T16:44:05.136Z,96307.75
2023-02-21T16:46:31.852Z,96329.13
2023-02-21T16:48:59.830Z,96329.53
2023-02-21T16:51:33.404Z,96326.75
2023-02-21T16:54:00.046Z,96329.84
2023-02-21T16:56:26.727Z,96352.34
2023-02-21T16:58:57.092Z,96349.94
2023-02-21T17:01:23.709Z,96357.66
2023-02-21T17:03:51.884Z,96335.34
2023-02-21T17:06:22.474Z,96362.34
2023-02-21T17:08:49.388Z,96365.63
2023-02-21T17:11:16.371Z,96317.34
2023-02-21T17:13:43.184Z,96330.41
2023-02-21T17:16:10.349Z,96350.19
2023-02-21T17:18:37.028Z,96366.59
2023-02-21T17:21:04.414Z,96378.69
2023-02-21T17:23:31.076Z,96373.41
2023-02-21T17:25:57.692Z,96348.94
2023-02-21T17:28:24.402Z,96383.91
2023-02-21T17:30:51.204Z,96298.63
2023-02-21T17:33:17.985Z,96350.66
2023-02-21T17:35:44.909Z,96357.94
2023-02-21T17:38:11.898Z,96364.06
2023-02-21T17:40:38.589Z,96362.84
2023-02-21T17:43:08.686Z,96338.75
2023-02-21T17:45:38.942Z,96385.28
2023-02-21T17:48:06.183Z,96378.75
2023-02-21T17:50:33.467Z,96392.72
2023-02-21T17:53:00.226Z,96381.75
2023-02-21T17:55:28.900Z,96328.00
2023-02-21T17:57:55.972Z,96390.69
2023-02-21T18:00:25.687Z,96342.72
2023-02-21T18:02:54.797Z,96381.88
2023-02-21T18:05:22.349Z,96388.09
2023-02-21T18:07:51.341Z,96381.97
2023-02-21T18:10:20.043Z,96390.25
2023-02-21T18:12:48.273Z,96391.88
2023-02-21T18:15:16.633Z,96359.34
2023-02-21T18:17:43.287Z,96337.53
2023-02-21T18:20:11.048Z,96309.09
2023-02-21T18:22:38.738Z,96386.34
2023-02-21T18:25:06.096Z,96386.81
2023-02-21T18:27:32.786Z,96368.53
2023-02-21T18:29:59.480Z,96374.72
2023-02-21T18:32:26.990Z,96326.72
2023-02-21T18:34:53.915Z,96355.22
2023-02-21T18:37:20.682Z,96374.72
2023-02-21T18:39:53.469Z,96344.38
2023-02-21T18:42:21.593Z,96384.63
2023-02-21T18:44:48.721Z,96371.63
2023-02-21T18:47:19.387Z,96386.84
2023-02-21T18:49:48.214Z,96389.19
2023-02-21T18:52:15.653Z,96389.88
2023-02-21T18:54:50.359Z,96321.91
2023-02-21T18:57:20.014Z,96394.38
2023-02-21T18:59:46.977Z,96393.81
2023-02-21T19:02:16.520Z,96393.22
2023-02-21T19:04:43.618Z,96369.69
2023-02-21T19:07:13.410Z,96400.19
2023-02-21T19:09:44.584Z,96355.09
2023-02-21T19:12:11.194Z,96357.59
2023-02-21T19:14:38.382Z,96348.31
2023-02-21T19:17:07.793Z,96371.34
2023-02-21T19:19:35.452Z,96333.09
2023-02-21T19:22:02.148Z,96339.28
2023-02-21T19:24:28.801Z,96361.28
2023-02-21T19:26:55.561Z,96340.84
2023-02-21T19:29:22.214Z,96375.09
2023-02-21T19:31:49.080Z,96354.16
2023-02-21T19:34:16.078Z,96380.69
2023-02-21T19:36:42.974Z,96375.53
2023-02-21T19:39:10.280Z,96379.25
2023-02-21T19:41:37.087Z,96318.03
2023-02-21T19:44:04.927Z,96345.63
2023-02-21T19:46:32.332Z,96354.03
2023-02-21T19:48:59.736Z,96370.31
2023-02-21T19:51:28.377Z,96333.13
2023-02-21T19:53:58.891Z,96335.75
2023-02-21T19:56:29.127Z,96375.56
2023-02-21T19:58:55.909Z,96334.34
2023-02-21T20:01:23.088Z,96328.78
2023-02-21T20:03:50.546Z,96380.03
2023-02-21T20:06:18.416Z,96301.03
2023-02-21T20:08:47.894Z,96357.09
2023-02-21T20:11:19.055Z,96371.06
2023-02-21T20:13:45.849Z,96338.34
2023-02-21T20:16:15.372Z,96343.44
2023-02-21T20:18:42.950Z,96351.81
2023-02-21T20:21:10.488Z,96369.03
2023-02-21T20:23:37.102Z,96378.66
2023-02-21T20:26:03.989Z,96319.56
2023-02-21T20:28:30.691Z,96312.56
2023-02-21T20:30:57.425Z,96342.16
2023-02-21T20:33:24.723Z,96295.06
2023-02-21T20:35:52.162Z,96337.22
2023-02-21T20:38:19.735Z,96312.44
2023-02-21T20:40:46.743Z,96340.84
2023-02-21T20:43:13.460Z,96348.13
2023-02-21T20:45:40.174Z,96351.38
2023-02-21T20:48:11.035Z,96365.31
2023-02-21T20:50:38.686Z,96321.53
2023-02-21T20:53:05.745Z,96386.81
2023-02-21T20:55:32.673Z,96333.03
2023-02-21T20:57:59.291Z,96345.72
2023-02-21T21:00:30.398Z,96375.97
2023-02-21T21:02:57.578Z,96381.69
2023-02-21T21:05:24.229Z,96358.44
2023-02-21T21:07:51.155Z,96330.22
2023-02-21T21:10:19.045Z,96337.97
2023-02-21T21:12:45.952Z,96351.63
2023-02-21T21:15:14.324Z,96369.75
2023-02-21T21:17:41.455Z,96335.88
2023-02-21T21:20:14.479Z,96376.09
2023-02-21T21:22:41.595Z,96346.34
2023-02-21T21:25:08.984Z,96325.56
2023-02-21T21:27:36.956Z,96382.06
2023-02-21T21:30:07.213Z,96373.50
2023-02-21T21:32:34.583Z,96365.75
2023-02-21T21:35:07.447Z,96344.31
2023-02-21T21:37:35.838Z,96376.84
2023-02-21T21:40:18.229Z,96345.78
2023-02-21T21:42:48.863Z,96377.25
2023-02-21T21:45:21.289Z,96367.03
2023-02-21T21:47:50.983Z,96315.41
2023-02-21T21:50:22.076Z,96363.31
2023-02-21T21:52:52.989Z,96306.28
2023-02-21T21:55:25.532Z,96371.34
2023-02-21T21:57:55.987Z,96334.78
2023-02-21T22:00:25.656Z,96335.09
2023-02-21T22:03:02.434Z,96347.34
2023-02-21T22:05:31.514Z,96367.78
2023-02-21T22:07:59.245Z,96352.44
2023-02-21T22:10:26.814Z,96371.25
2023-02-21T22:12:56.659Z,96360.09
2023-02-21T22:15:26.161Z,96369.59
2023-02-21T22:17:53.706Z,96344.56
2023-02-21T22:20:28.300Z,96373.66
2023-02-21T22:22:59.315Z,96370.16
2023-02-21T22:25:28.236Z,96367.91
2023-02-21T22:27:54.973Z,96184.09
2023-02-21T22:30:22.952Z,96331.97
2023-02-21T22:32:50.516Z,96365.13
2023-02-21T22:35:19.926Z,96332.22
2023-02-21T22:37:51.791Z,96304.91
2023-02-21T22:40:24.278Z,96314.00
2023-02-21T22:42:56.756Z,96343.47
2023-02-21T22:45:24.170Z,96295.47
2023-02-21T22:47:52.667Z,96327.22
2023-02-21T22:50:20.810Z,96335.47
2023-02-21T22:52:59.187Z,96336.84
2023-02-21T22:55:27.135Z,96337.72
2023-02-21T22:57:58.600Z,96334.00
2023-02-21T23:00:34.477Z,96324.81
2023-02-21T23:03:12.765Z,96317.03
2023-02-21T23:05:43.648Z,96305.53
2023-02-21T23:08:12.941Z,96325.53
2023-02-21T23:10:40.386Z,96292.69
2023-02-21T23:13:16.505Z,96320.88
2023-02-21T23:15:44.145Z,96312.22
2023-02-21T23:18:12.250Z,96314.50
2023-02-21T23:20:39.058Z,96285.09
2023-02-21T23:23:05.733Z,96296.13
2023-02-21T23:25:36.702Z,96314.69
2023-02-21T23:28:09.387Z,96316.16
2023-02-21T23:30:43.546Z,96310.03
2023-02-21T23:33:17.282Z,96283.47
2023-02-21T23:35:46.283Z,96305.78
2023-02-21T23:38:16.326Z,96281.44
2023-02-21T23:40:48.090Z,96255.56
2023-02-21T23:43:16.843Z,96267.00
2023-02-21T23:45:45.183Z,96279.00
2023-02-21T23:48:15.779Z,96207.50
2023-02-21T23:50:47.613Z,96307.09
2023-02-21T23:53:17.357Z,96259.00
2023-02-21T23:55:46.573Z,96265.91
2023-02-21T23:58:16.351Z,96258.72
